sensor_id;sensor_type;location;lat;lon;timestamp;temperature;humidity
1107;DHT22;540;49.448;8.612;2023-03-05T00:02:23;5.40;94.50
1107;DHT22;540;49.448;8.612;2023-03-05T00:04:51;5.60;94.40
1107;DHT22;540;49.448;8.612;2023-03-05T00:07:19;5.40;94.20
1107;DHT22;540;49.448;8.612;2023-03-05T00:09:47;5.30;94.10
1107;DHT22;540;49.448;8.612;2023-03-05T00:12:14;5.50;94.10
1107;DHT22;540;49.448;8.612;2023-03-05T00:14:42;5.50;94.40
1107;DHT22;540;49.448;8.612;2023-03-05T00:17:11;5.40;94.50
1107;DHT22;540;49.448;8.612;2023-03-05T00:19:39;5.30;94.50
1107;DHT22;540;49.448;8.612;2023-03-05T00:22:07;5.70;94.80
1107;DHT22;540;49.448;8.612;2023-03-05T00:24:35;5.50;94.60
1107;DHT22;540;49.448;8.612;2023-03-05T00:27:03;5.30;95.00
1107;DHT22;540;49.448;8.612;2023-03-05T00:29:30;5.60;94.70
1107;DHT22;540;49.448;8.612;2023-03-05T00:31:58;5.30;94.80
1107;DHT22;540;49.448;8.612;2023-03-05T00:34:27;5.30;95.30
1107;DHT22;540;49.448;8.612;2023-03-05T00:36:55;5.30;94.80
1107;DHT22;540;49.448;8.612;2023-03-05T00:39:23;5.30;94.40
1107;DHT22;540;49.448;8.612;2023-03-05T00:41:51;5.50;94.40
1107;DHT22;540;49.448;8.612;2023-03-05T00:44:19;5.20;94.50
1107;DHT22;540;49.448;8.612;2023-03-05T00:46:48;5.40;94.60
1107;DHT22;540;49.448;8.612;2023-03-05T00:49:15;5.20;94.90
1107;DHT22;540;49.448;8.612;2023-03-05T00:51:44;5.30;95.30
1107;DHT22;540;49.448;8.612;2023-03-05T00:54:12;5.30;95.00
1107;DHT22;540;49.448;8.612;2023-03-05T00:56:40;5.20;94.70
1107;DHT22;540;49.448;8.612;2023-03-05T00:59:08;5.30;95.20
1107;DHT22;540;49.448;8.612;2023-03-05T01:01:36;5.20;95.60
1107;DHT22;540;49.448;8.612;2023-03-05T01:04:04;5.30;94.60
1107;DHT22;540;49.448;8.612;2023-03-05T01:06:32;5.30;94.70
1107;DHT22;540;49.448;8.612;2023-03-05T01:09:01;5.30;94.70
1107;DHT22;540;49.448;8.612;2023-03-05T01:11:29;5.40;94.70
1107;DHT22;540;49.448;8.612;2023-03-05T01:13:57;5.30;94.60
1107;DHT22;540;49.448;8.612;2023-03-05T01:16:25;5.20;94.60
1107;DHT22;540;49.448;8.612;2023-03-05T01:18:53;5.50;94.80
1107;DHT22;540;49.448;8.612;2023-03-05T01:21:21;5.20;95.40
1107;DHT22;540;49.448;8.612;2023-03-05T01:23:49;5.20;95.20
1107;DHT22;540;49.448;8.612;2023-03-05T01:26:18;5.10;95.10
1107;DHT22;540;49.448;8.612;2023-03-05T01:28:46;5.20;95.40
1107;DHT22;540;49.448;8.612;2023-03-05T01:31:14;5.20;95.50
1107;DHT22;540;49.448;8.612;2023-03-05T01:33:42;5.10;95.30
1107;DHT22;540;49.448;8.612;2023-03-05T01:36:11;5.20;95.60
1107;DHT22;540;49.448;8.612;2023-03-05T01:38:41;5.20;96.40
1107;DHT22;540;49.448;8.612;2023-03-05T01:41:11;4.90;95.80
1107;DHT22;540;49.448;8.612;2023-03-05T01:43:41;5.00;96.80
1107;DHT22;540;49.448;8.612;2023-03-05T01:46:24;5.10;97.00
1107;DHT22;540;49.448;8.612;2023-03-05T01:48:57;5.10;96.40
1107;DHT22;540;49.448;8.612;2023-03-05T01:51:28;5.00;96.80
1107;DHT22;540;49.448;8.612;2023-03-05T01:53:58;4.90;97.50
1107;DHT22;540;49.448;8.612;2023-03-05T01:56:28;4.80;97.60
1107;DHT22;540;49.448;8.612;2023-03-05T01:58:58;5.00;97.80
1107;DHT22;540;49.448;8.612;2023-03-05T02:01:31;4.90;97.20
1107;DHT22;540;49.448;8.612;2023-03-05T02:04:00;5.00;97.90
1107;DHT22;540;49.448;8.612;2023-03-05T02:06:28;5.10;97.50
1107;DHT22;540;49.448;8.612;2023-03-05T02:08:56;5.00;98.00
1107;DHT22;540;49.448;8.612;2023-03-05T02:11:24;4.90;98.50
1107;DHT22;540;49.448;8.612;2023-03-05T02:13:52;4.80;98.60
1107;DHT22;540;49.448;8.612;2023-03-05T02:16:21;5.00;98.80
1107;DHT22;540;49.448;8.612;2023-03-05T02:18:49;4.90;99.10
1107;DHT22;540;49.448;8.612;2023-03-05T02:21:28;4.80;98.90
1107;DHT22;540;49.448;8.612;2023-03-05T02:23:56;4.90;99.50
1107;DHT22;540;49.448;8.612;2023-03-05T02:26:23;4.80;99.30
1107;DHT22;540;49.448;8.612;2023-03-05T02:28:54;4.80;99.20
1107;DHT22;540;49.448;8.612;2023-03-05T02:31:24;4.90;99.80
1107;DHT22;540;49.448;8.612;2023-03-05T02:33:53;4.70;99.10
1107;DHT22;540;49.448;8.612;2023-03-05T02:36:22;4.80;98.80
1107;DHT22;540;49.448;8.612;2023-03-05T02:38:52;4.80;98.70
1107;DHT22;540;49.448;8.612;2023-03-05T02:41:22;4.70;98.60
1107;DHT22;540;49.448;8.612;2023-03-05T02:43:50;4.90;98.70
1107;DHT22;540;49.448;8.612;2023-03-05T02:46:18;4.80;99.00
1107;DHT22;540;49.448;8.612;2023-03-05T02:48:46;4.80;99.00
1107;DHT22;540;49.448;8.612;2023-03-05T02:51:15;4.90;98.30
1107;DHT22;540;49.448;8.612;2023-03-05T02:53:43;4.90;98.50
1107;DHT22;540;49.448;8.612;2023-03-05T02:56:12;4.80;98.20
1107;DHT22;540;49.448;8.612;2023-03-05T02:58:40;4.80;98.30
1107;DHT22;540;49.448;8.612;2023-03-05T03:01:08;4.80;98.60
1107;DHT22;540;49.448;8.612;2023-03-05T03:03:37;4.90;98.80
1107;DHT22;540;49.448;8.612;2023-03-05T03:06:06;4.90;98.90
1107;DHT22;540;49.448;8.612;2023-03-05T03:08:33;4.90;98.30
1107;DHT22;540;49.448;8.612;2023-03-05T03:11:06;5.10;98.10
1107;DHT22;540;49.448;8.612;2023-03-05T03:13:35;5.00;98.40
1107;DHT22;540;49.448;8.612;2023-03-05T03:16:04;4.70;97.80
1107;DHT22;540;49.448;8.612;2023-03-05T03:18:32;4.90;97.30
1107;DHT22;540;49.448;8.612;2023-03-05T03:21:00;4.80;97.30
1107;DHT22;540;49.448;8.612;2023-03-05T03:23:28;4.80;97.60
1107;DHT22;540;49.448;8.612;2023-03-05T03:25:56;4.90;97.60
1107;DHT22;540;49.448;8.612;2023-03-05T03:28:24;4.80;97.60
1107;DHT22;540;49.448;8.612;2023-03-05T03:30:53;4.80;97.40
1107;DHT22;540;49.448;8.612;2023-03-05T03:33:21;4.80;97.40
1107;DHT22;540;49.448;8.612;2023-03-05T03:35:49;4.90;97.60
1107;DHT22;540;49.448;8.612;2023-03-05T03:38:17;4.80;97.40
1107;DHT22;540;49.448;8.612;2023-03-05T03:40:45;4.80;97.50
1107;DHT22;540;49.448;8.612;2023-03-05T03:43:13;4.80;97.40
1107;DHT22;540;49.448;8.612;2023-03-05T03:45:41;5.00;97.70
1107;DHT22;540;49.448;8.612;2023-03-05T03:48:11;4.80;97.20
1107;DHT22;540;49.448;8.612;2023-03-05T03:50:39;4.80;97.70
1107;DHT22;540;49.448;8.612;2023-03-05T03:53:08;4.80;97.00
1107;DHT22;540;49.448;8.612;2023-03-05T03:55:40;4.70;97.40
1107;DHT22;540;49.448;8.612;2023-03-05T03:58:09;4.80;96.80
1107;DHT22;540;49.448;8.612;2023-03-05T04:00:38;5.10;97.30
1107;DHT22;540;49.448;8.612;2023-03-05T04:03:06;4.90;96.70
1107;DHT22;540;49.448;8.612;2023-03-05T04:05:35;4.80;97.40
1107;DHT22;540;49.448;8.612;2023-03-05T04:08:03;4.90;97.00
1107;DHT22;540;49.448;8.612;2023-03-05T04:10:33;4.80;97.00
1107;DHT22;540;49.448;8.612;2023-03-05T04:13:01;4.70;97.10
1107;DHT22;540;49.448;8.612;2023-03-05T04:15:29;4.80;97.10
1107;DHT22;540;49.448;8.612;2023-03-05T04:17:57;4.80;97.00
1107;DHT22;540;49.448;8.612;2023-03-05T04:20:25;5.10;97.10
1107;DHT22;540;49.448;8.612;2023-03-05T04:22:54;4.30;97.20
1107;DHT22;540;49.448;8.612;2023-03-05T04:25:21;4.80;97.50
1107;DHT22;540;49.448;8.612;2023-03-05T04:27:50;4.80;97.40
1107;DHT22;540;49.448;8.612;2023-03-05T04:30:17;4.80;97.60
1107;DHT22;540;49.448;8.612;2023-03-05T04:32:45;4.80;98.40
1107;DHT22;540;49.448;8.612;2023-03-05T04:35:13;4.70;98.00
1107;DHT22;540;49.448;8.612;2023-03-05T04:37:41;4.60;98.00
1107;DHT22;540;49.448;8.612;2023-03-05T04:40:11;4.70;98.40
1107;DHT22;540;49.448;8.612;2023-03-05T04:42:39;4.60;98.70
1107;DHT22;540;49.448;8.612;2023-03-05T04:45:08;4.70;99.20
1107;DHT22;540;49.448;8.612;2023-03-05T04:47:36;4.50;99.50
1107;DHT22;540;49.448;8.612;2023-03-05T04:50:06;4.70;99.90
1107;DHT22;540;49.448;8.612;2023-03-05T04:52:34;4.60;99.90
1107;DHT22;540;49.448;8.612;2023-03-05T04:55:05;4.80;99.90
1107;DHT22;540;49.448;8.612;2023-03-05T04:57:34;4.50;99.90
1107;DHT22;540;49.448;8.612;2023-03-05T05:00:02;4.60;99.90
1107;DHT22;540;49.448;8.612;2023-03-05T05:02:32;4.60;99.90
1107;DHT22;540;49.448;8.612;2023-03-05T05:05:00;4.80;99.90
1107;DHT22;540;49.448;8.612;2023-03-05T05:07:28;4.50;99.90
1107;DHT22;540;49.448;8.612;2023-03-05T05:09:55;4.60;99.90
1107;DHT22;540;49.448;8.612;2023-03-05T05:12:23;4.60;99.90
1107;DHT22;540;49.448;8.612;2023-03-05T05:14:52;4.60;99.90
1107;DHT22;540;49.448;8.612;2023-03-05T05:17:20;4.60;99.90
1107;DHT22;540;49.448;8.612;2023-03-05T05:19:48;4.00;99.90
1107;DHT22;540;49.448;8.612;2023-03-05T05:22:15;4.50;99.90
1107;DHT22;540;49.448;8.612;2023-03-05T05:24:43;4.50;99.90
1107;DHT22;540;49.448;8.612;2023-03-05T05:27:11;4.50;99.90
1107;DHT22;540;49.448;8.612;2023-03-05T05:29:39;4.50;99.90
1107;DHT22;540;49.448;8.612;2023-03-05T05:32:08;4.50;99.90
1107;DHT22;540;49.448;8.612;2023-03-05T05:34:36;4.40;99.90
1107;DHT22;540;49.448;8.612;2023-03-05T05:37:04;4.60;99.90
1107;DHT22;540;49.448;8.612;2023-03-05T05:39:31;4.50;99.90
1107;DHT22;540;49.448;8.612;2023-03-05T05:41:59;4.40;99.90
1107;DHT22;540;49.448;8.612;2023-03-05T05:44:27;4.70;99.90
1107;DHT22;540;49.448;8.612;2023-03-05T05:46:55;4.30;99.90
1107;DHT22;540;49.448;8.612;2023-03-05T05:49:24;4.40;99.90
1107;DHT22;540;49.448;8.612;2023-03-05T05:51:52;4.60;99.90
1107;DHT22;540;49.448;8.612;2023-03-05T05:54:19;4.40;99.90
1107;DHT22;540;49.448;8.612;2023-03-05T05:56:47;4.70;99.90
1107;DHT22;540;49.448;8.612;2023-03-05T05:59:15;4.50;99.90
1107;DHT22;540;49.448;8.612;2023-03-05T06:01:43;4.40;99.90
1107;DHT22;540;49.448;8.612;2023-03-05T06:04:11;4.70;99.90
1107;DHT22;540;49.448;8.612;2023-03-05T06:06:40;4.60;99.90
1107;DHT22;540;49.448;8.612;2023-03-05T06:09:08;4.80;99.90
1107;DHT22;540;49.448;8.612;2023-03-05T06:11:36;4.50;99.90
1107;DHT22;540;49.448;8.612;2023-03-05T06:14:04;4.60;99.90
1107;DHT22;540;49.448;8.612;2023-03-05T06:16:33;5.00;99.90
1107;DHT22;540;49.448;8.612;2023-03-05T06:19:01;5.00;99.90
1107;DHT22;540;49.448;8.612;2023-03-05T06:21:31;5.00;99.90
1107;DHT22;540;49.448;8.612;2023-03-05T06:24:00;4.60;99.90
1107;DHT22;540;49.448;8.612;2023-03-05T06:26:28;4.90;99.90
1107;DHT22;540;49.448;8.612;2023-03-05T06:28:56;4.50;99.90
1107;DHT22;540;49.448;8.612;2023-03-05T06:31:26;4.70;99.90
1107;DHT22;540;49.448;8.612;2023-03-05T06:33:55;4.80;99.90
1107;DHT22;540;49.448;8.612;2023-03-05T06:36:24;4.80;99.90
1107;DHT22;540;49.448;8.612;2023-03-05T06:38:52;5.00;99.90
1107;DHT22;540;49.448;8.612;2023-03-05T06:41:23;4.80;99.90
1107;DHT22;540;49.448;8.612;2023-03-05T06:43:51;4.70;99.90
1107;DHT22;540;49.448;8.612;2023-03-05T06:46:20;4.90;99.90
1107;DHT22;540;49.448;8.612;2023-03-05T06:48:49;4.80;99.90
1107;DHT22;540;49.448;8.612;2023-03-05T06:51:19;5.00;99.90
1107;DHT22;540;49.448;8.612;2023-03-05T06:53:48;4.80;99.30
1107;DHT22;540;49.448;8.612;2023-03-05T06:56:16;5.20;99.70
1107;DHT22;540;49.448;8.612;2023-03-05T06:58:47;5.00;99.50
1107;DHT22;540;49.448;8.612;2023-03-05T07:01:16;4.90;99.30
1107;DHT22;540;49.448;8.612;2023-03-05T07:03:48;4.90;98.90
1107;DHT22;540;49.448;8.612;2023-03-05T07:06:16;4.90;99.30
1107;DHT22;540;49.448;8.612;2023-03-05T07:08:44;4.80;99.00
1107;DHT22;540;49.448;8.612;2023-03-05T07:11:15;4.90;99.30
1107;DHT22;540;49.448;8.612;2023-03-05T07:13:43;5.00;98.70
1107;DHT22;540;49.448;8.612;2023-03-05T07:16:16;4.80;98.50
1107;DHT22;540;49.448;8.612;2023-03-05T07:18:45;4.80;98.40
1107;DHT22;540;49.448;8.612;2023-03-05T07:21:15;5.10;98.40
1107;DHT22;540;49.448;8.612;2023-03-05T07:23:44;5.10;98.80
1107;DHT22;540;49.448;8.612;2023-03-05T07:26:12;5.00;98.10
1107;DHT22;540;49.448;8.612;2023-03-05T07:28:40;5.10;98.20
1107;DHT22;540;49.448;8.612;2023-03-05T07:31:12;5.20;98.10
1107;DHT22;540;49.448;8.612;2023-03-05T07:33:41;5.00;98.50
1107;DHT22;540;49.448;8.612;2023-03-05T07:36:10;5.40;98.30
1107;DHT22;540;49.448;8.612;2023-03-05T07:38:38;5.30;97.60
1107;DHT22;540;49.448;8.612;2023-03-05T07:41:08;5.40;97.80
1107;DHT22;540;49.448;8.612;2023-03-05T07:43:36;5.60;98.60
1107;DHT22;540;49.448;8.612;2023-03-05T07:46:05;5.50;97.60
1107;DHT22;540;49.448;8.612;2023-03-05T07:48:34;5.60;97.70
1107;DHT22;540;49.448;8.612;2023-03-05T07:51:05;5.70;97.50
1107;DHT22;540;49.448;8.612;2023-03-05T07:53:34;5.90;97.00
1107;DHT22;540;49.448;8.612;2023-03-05T07:56:02;5.80;96.80
1107;DHT22;540;49.448;8.612;2023-03-05T07:58:30;6.00;96.70
1107;DHT22;540;49.448;8.612;2023-03-05T08:00:57;5.90;96.20
1107;DHT22;540;49.448;8.612;2023-03-05T08:03:25;5.90;95.80
1107;DHT22;540;49.448;8.612;2023-03-05T08:05:53;5.90;96.00
1107;DHT22;540;49.448;8.612;2023-03-05T08:08:22;5.90;95.70
1107;DHT22;540;49.448;8.612;2023-03-05T08:10:50;5.90;95.90
1107;DHT22;540;49.448;8.612;2023-03-05T08:13:18;6.30;95.80
1107;DHT22;540;49.448;8.612;2023-03-05T08:15:45;6.20;94.80
1107;DHT22;540;49.448;8.612;2023-03-05T08:18:13;6.30;94.50
1107;DHT22;540;49.448;8.612;2023-03-05T08:20:44;6.40;93.80
1107;DHT22;540;49.448;8.612;2023-03-05T08:23:12;6.60;94.00
1107;DHT22;540;49.448;8.612;2023-03-05T08:25:41;6.40;93.90
1107;DHT22;540;49.448;8.612;2023-03-05T08:28:09;6.70;93.60
1107;DHT22;540;49.448;8.612;2023-03-05T08:30:39;7.10;93.20
1107;DHT22;540;49.448;8.612;2023-03-05T08:33:07;7.00;92.90
1107;DHT22;540;49.448;8.612;2023-03-05T08:35:35;7.10;92.60
1107;DHT22;540;49.448;8.612;2023-03-05T08:38:03;7.10;92.30
1107;DHT22;540;49.448;8.612;2023-03-05T08:40:31;7.30;91.90
1107;DHT22;540;49.448;8.612;2023-03-05T08:43:00;7.20;91.70
1107;DHT22;540;49.448;8.612;2023-03-05T08:45:30;7.40;91.90
1107;DHT22;540;49.448;8.612;2023-03-05T08:47:58;7.60;91.80
1107;DHT22;540;49.448;8.612;2023-03-05T08:50:26;7.40;91.30
1107;DHT22;540;49.448;8.612;2023-03-05T08:52:53;7.60;91.30
1107;DHT22;540;49.448;8.612;2023-03-05T08:55:22;7.50;91.00
1107;DHT22;540;49.448;8.612;2023-03-05T08:57:50;7.80;90.90
1107;DHT22;540;49.448;8.612;2023-03-05T09:00:20;7.90;90.90
1107;DHT22;540;49.448;8.612;2023-03-05T09:02:50;7.90;90.70
1107;DHT22;540;49.448;8.612;2023-03-05T09:05:20;7.60;90.10
1107;DHT22;540;49.448;8.612;2023-03-05T09:07:50;7.80;90.20
1107;DHT22;540;49.448;8.612;2023-03-05T09:10:20;7.80;90.10
1107;DHT22;540;49.448;8.612;2023-03-05T09:12:49;7.70;90.20
1107;DHT22;540;49.448;8.612;2023-03-05T09:15:21;7.40;90.10
1107;DHT22;540;49.448;8.612;2023-03-05T09:17:50;7.80;90.00
1107;DHT22;540;49.448;8.612;2023-03-05T09:20:20;7.60;88.90
1107;DHT22;540;49.448;8.612;2023-03-05T09:22:50;7.80;89.00
1107;DHT22;540;49.448;8.612;2023-03-05T09:25:20;7.90;89.10
1107;DHT22;540;49.448;8.612;2023-03-05T09:27:50;7.80;88.10
1107;DHT22;540;49.448;8.612;2023-03-05T09:30:22;7.80;88.20
1107;DHT22;540;49.448;8.612;2023-03-05T09:32:51;7.90;87.40
1107;DHT22;540;49.448;8.612;2023-03-05T09:35:21;7.90;86.80
1107;DHT22;540;49.448;8.612;2023-03-05T09:37:51;8.20;85.90
1107;DHT22;540;49.448;8.612;2023-03-05T09:40:21;7.90;85.50
1107;DHT22;540;49.448;8.612;2023-03-05T09:43:02;7.80;84.80
1107;DHT22;540;49.448;8.612;2023-03-05T09:45:38;7.90;84.60
1107;DHT22;540;49.448;8.612;2023-03-05T09:48:16;8.00;83.80
1107;DHT22;540;49.448;8.612;2023-03-05T09:50:48;7.90;83.40
1107;DHT22;540;49.448;8.612;2023-03-05T09:53:31;7.80;83.50
1107;DHT22;540;49.448;8.612;2023-03-05T09:56:08;7.90;83.50
1107;DHT22;540;49.448;8.612;2023-03-05T09:58:39;7.70;80.80
1107;DHT22;540;49.448;8.612;2023-03-05T10:01:10;7.80;79.40
1107;DHT22;540;49.448;8.612;2023-03-05T10:03:49;7.80;77.10
1107;DHT22;540;49.448;8.612;2023-03-05T10:06:22;7.80;76.70
1107;DHT22;540;49.448;8.612;2023-03-05T10:08:54;7.80;75.80
1107;DHT22;540;49.448;8.612;2023-03-05T10:11:41;7.50;76.20
1107;DHT22;540;49.448;8.612;2023-03-05T10:14:14;7.40;75.40
1107;DHT22;540;49.448;8.612;2023-03-05T10:16:51;7.70;74.40
1107;DHT22;540;49.448;8.612;2023-03-05T10:19:33;7.70;73.90
1107;DHT22;540;49.448;8.612;2023-03-05T10:22:12;7.90;73.90
1107;DHT22;540;49.448;8.612;2023-03-05T10:24:49;7.70;74.70
1107;DHT22;540;49.448;8.612;2023-03-05T10:27:37;7.60;74.90
1107;DHT22;540;49.448;8.612;2023-03-05T10:30:22;7.40;73.60
1107;DHT22;540;49.448;8.612;2023-03-05T10:33:06;7.80;74.80
1107;DHT22;540;49.448;8.612;2023-03-05T10:39:03;7.30;73.80
1107;DHT22;540;49.448;8.612;2023-03-05T10:41:42;7.30;74.20
1107;DHT22;540;49.448;8.612;2023-03-05T10:44:24;7.50;75.00
1107;DHT22;540;49.448;8.612;2023-03-05T10:46:56;7.70;76.10
1107;DHT22;540;49.448;8.612;2023-03-05T10:49:29;7.80;75.00
1107;DHT22;540;49.448;8.612;2023-03-05T10:52:03;7.70;75.30
1107;DHT22;540;49.448;8.612;2023-03-05T10:54:34;7.80;74.70
1107;DHT22;540;49.448;8.612;2023-03-05T10:57:16;8.00;74.00
1107;DHT22;540;49.448;8.612;2023-03-05T10:59:47;7.90;73.20
1107;DHT22;540;49.448;8.612;2023-03-05T11:02:16;7.90;73.00
1107;DHT22;540;49.448;8.612;2023-03-05T11:04:46;8.00;73.90
1107;DHT22;540;49.448;8.612;2023-03-05T11:07:35;7.90;72.90
1107;DHT22;540;49.448;8.612;2023-03-05T11:10:13;8.00;73.90
1107;DHT22;540;49.448;8.612;2023-03-05T11:12:42;7.80;73.50
1107;DHT22;540;49.448;8.612;2023-03-05T11:15:26;8.10;73.10
1107;DHT22;540;49.448;8.612;2023-03-05T11:18:10;8.20;74.00
1107;DHT22;540;49.448;8.612;2023-03-05T11:20:43;7.70;72.00
1107;DHT22;540;49.448;8.612;2023-03-05T11:23:13;8.10;72.60
1107;DHT22;540;49.448;8.612;2023-03-05T11:26:14;8.40;72.10
1107;DHT22;540;49.448;8.612;2023-03-05T11:28:56;8.40;72.40
1107;DHT22;540;49.448;8.612;2023-03-05T11:31:26;8.30;72.20
1107;DHT22;540;49.448;8.612;2023-03-05T11:33:56;8.20;72.20
1107;DHT22;540;49.448;8.612;2023-03-05T11:36:28;8.10;71.80
1107;DHT22;540;49.448;8.612;2023-03-05T11:38:58;8.10;70.70
1107;DHT22;540;49.448;8.612;2023-03-05T11:41:31;8.10;70.10
1107;DHT22;540;49.448;8.612;2023-03-05T11:44:03;8.00;68.50
1107;DHT22;540;49.448;8.612;2023-03-05T11:46:37;8.10;67.60
1107;DHT22;540;49.448;8.612;2023-03-05T11:49:10;8.30;67.20
1107;DHT22;540;49.448;8.612;2023-03-05T11:51:44;8.30;66.70
1107;DHT22;540;49.448;8.612;2023-03-05T11:54:18;8.20;65.50
1107;DHT22;540;49.448;8.612;2023-03-05T11:56:48;8.10;65.40
1107;DHT22;540;49.448;8.612;2023-03-05T11:59:21;8.30;64.80
1107;DHT22;540;49.448;8.612;2023-03-05T12:01:52;8.30;64.80
1107;DHT22;540;49.448;8.612;2023-03-05T12:04:21;8.30;65.60
1107;DHT22;540;49.448;8.612;2023-03-05T12:06:53;8.20;65.70
1107;DHT22;540;49.448;8.612;2023-03-05T12:09:28;8.20;64.90
1107;DHT22;540;49.448;8.612;2023-03-05T12:12:07;8.00;65.20
1107;DHT22;540;49.448;8.612;2023-03-05T12:14:43;8.00;66.10
1107;DHT22;540;49.448;8.612;2023-03-05T12:17:15;8.10;66.40
1107;DHT22;540;49.448;8.612;2023-03-05T12:19:51;8.20;66.00
1107;DHT22;540;49.448;8.612;2023-03-05T12:22:25;8.00;65.70
1107;DHT22;540;49.448;8.612;2023-03-05T12:25:22;8.10;65.40
1107;DHT22;540;49.448;8.612;2023-03-05T12:27:51;7.90;65.50
1107;DHT22;540;49.448;8.612;2023-03-05T12:30:53;7.90;65.60
1107;DHT22;540;49.448;8.612;2023-03-05T12:33:36;8.10;67.00
1107;DHT22;540;49.448;8.612;2023-03-05T12:36:32;7.80;65.90
1107;DHT22;540;49.448;8.612;2023-03-05T12:45:28;7.90;65.60
1107;DHT22;540;49.448;8.612;2023-03-05T12:48:39;8.10;65.60
1107;DHT22;540;49.448;8.612;2023-03-05T12:51:12;7.70;65.80
1107;DHT22;540;49.448;8.612;2023-03-05T12:53:40;7.80;66.10
1107;DHT22;540;49.448;8.612;2023-03-05T12:56:17;8.00;65.20
1107;DHT22;540;49.448;8.612;2023-03-05T12:58:48;7.80;66.20
1107;DHT22;540;49.448;8.612;2023-03-05T13:01:31;7.70;65.40
1107;DHT22;540;49.448;8.612;2023-03-05T13:04:03;7.50;65.80
1107;DHT22;540;49.448;8.612;2023-03-05T13:06:37;7.50;66.00
1107;DHT22;540;49.448;8.612;2023-03-05T13:09:13;7.60;65.30
1107;DHT22;540;49.448;8.612;2023-03-05T13:11:46;7.80;64.80
1107;DHT22;540;49.448;8.612;2023-03-05T13:14:29;7.70;64.80
1107;DHT22;540;49.448;8.612;2023-03-05T13:16:57;7.60;64.80
1107;DHT22;540;49.448;8.612;2023-03-05T13:19:25;7.60;65.20
1107;DHT22;540;49.448;8.612;2023-03-05T13:22:01;7.80;67.00
1107;DHT22;540;49.448;8.612;2023-03-05T13:24:29;7.90;67.30
1107;DHT22;540;49.448;8.612;2023-03-05T13:26:58;7.80;67.30
1107;DHT22;540;49.448;8.612;2023-03-05T13:29:26;8.00;67.80
1107;DHT22;540;49.448;8.612;2023-03-05T13:31:58;7.80;67.90
1107;DHT22;540;49.448;8.612;2023-03-05T13:34:28;7.50;68.50
1107;DHT22;540;49.448;8.612;2023-03-05T13:37:16;7.90;70.30
1107;DHT22;540;49.448;8.612;2023-03-05T13:39:48;7.70;68.90
1107;DHT22;540;49.448;8.612;2023-03-05T13:42:19;7.80;68.80
1107;DHT22;540;49.448;8.612;2023-03-05T13:44:53;7.40;68.30
1107;DHT22;540;49.448;8.612;2023-03-05T13:47:22;7.60;67.40
1107;DHT22;540;49.448;8.612;2023-03-05T13:49:55;7.50;68.20
1107;DHT22;540;49.448;8.612;2023-03-05T13:52:23;7.40;68.20
1107;DHT22;540;49.448;8.612;2023-03-05T13:54:51;7.70;68.20
1107;DHT22;540;49.448;8.612;2023-03-05T13:57:36;7.70;67.80
1107;DHT22;540;49.448;8.612;2023-03-05T14:00:07;7.70;67.80
1107;DHT22;540;49.448;8.612;2023-03-05T14:02:51;7.90;67.20
1107;DHT22;540;49.448;8.612;2023-03-05T14:05:20;7.80;65.60
1107;DHT22;540;49.448;8.612;2023-03-05T14:07:49;7.70;65.50
1107;DHT22;540;49.448;8.612;2023-03-05T14:10:28;7.80;64.80
1107;DHT22;540;49.448;8.612;2023-03-05T14:12:58;7.80;65.20
1107;DHT22;540;49.448;8.612;2023-03-05T14:15:28;7.80;65.20
1107;DHT22;540;49.448;8.612;2023-03-05T14:18:12;7.50;65.10
1107;DHT22;540;49.448;8.612;2023-03-05T14:20:58;8.00;66.30
1107;DHT22;540;49.448;8.612;2023-03-05T14:23:34;7.70;65.60
1107;DHT22;540;49.448;8.612;2023-03-05T14:26:26;7.70;65.90
1107;DHT22;540;49.448;8.612;2023-03-05T14:28:58;7.90;65.70
1107;DHT22;540;49.448;8.612;2023-03-05T14:31:28;7.30;65.90
1107;DHT22;540;49.448;8.612;2023-03-05T14:34:02;7.70;66.30
1107;DHT22;540;49.448;8.612;2023-03-05T14:36:31;7.80;67.00
1107;DHT22;540;49.448;8.612;2023-03-05T14:39:00;7.80;67.30
1107;DHT22;540;49.448;8.612;2023-03-05T14:41:37;7.60;67.30
1107;DHT22;540;49.448;8.612;2023-03-05T14:44:11;7.80;68.00
1107;DHT22;540;49.448;8.612;2023-03-05T14:46:39;7.80;67.70
1107;DHT22;540;49.448;8.612;2023-03-05T14:49:07;7.30;67.70
1107;DHT22;540;49.448;8.612;2023-03-05T14:51:38;7.70;68.60
1107;DHT22;540;49.448;8.612;2023-03-05T14:54:17;7.70;69.20
1107;DHT22;540;49.448;8.612;2023-03-05T14:56:45;7.50;69.40
1107;DHT22;540;49.448;8.612;2023-03-05T14:59:14;7.20;69.50
1107;DHT22;540;49.448;8.612;2023-03-05T15:01:42;7.40;70.40
1107;DHT22;540;49.448;8.612;2023-03-05T15:04:10;7.30;70.60
1107;DHT22;540;49.448;8.612;2023-03-05T15:06:41;7.50;70.80
1107;DHT22;540;49.448;8.612;2023-03-05T15:09:12;7.30;70.70
1107;DHT22;540;49.448;8.612;2023-03-05T15:11:43;7.40;70.60
1107;DHT22;540;49.448;8.612;2023-03-05T15:14:11;7.40;70.60
1107;DHT22;540;49.448;8.612;2023-03-05T15:16:42;7.70;71.10
1107;DHT22;540;49.448;8.612;2023-03-05T15:19:11;7.10;70.00
1107;DHT22;540;49.448;8.612;2023-03-05T15:21:39;7.30;70.40
1107;DHT22;540;49.448;8.612;2023-03-05T15:24:07;7.30;70.80
1107;DHT22;540;49.448;8.612;2023-03-05T15:26:37;7.10;70.30
1107;DHT22;540;49.448;8.612;2023-03-05T15:29:05;7.20;69.70
1107;DHT22;540;49.448;8.612;2023-03-05T15:31:32;7.40;69.40
1107;DHT22;540;49.448;8.612;2023-03-05T15:34:05;7.40;70.60
1107;DHT22;540;49.448;8.612;2023-03-05T15:36:33;7.50;70.30
1107;DHT22;540;49.448;8.612;2023-03-05T15:39:01;7.60;69.70
1107;DHT22;540;49.448;8.612;2023-03-05T15:41:29;7.60;69.30
1107;DHT22;540;49.448;8.612;2023-03-05T15:43:56;7.60;68.80
1107;DHT22;540;49.448;8.612;2023-03-05T15:46:24;7.30;68.80
1107;DHT22;540;49.448;8.612;2023-03-05T15:48:52;7.60;69.20
1107;DHT22;540;49.448;8.612;2023-03-05T15:51:21;7.40;69.20
1107;DHT22;540;49.448;8.612;2023-03-05T15:53:49;7.30;69.10
1107;DHT22;540;49.448;8.612;2023-03-05T15:56:18;7.50;68.60
1107;DHT22;540;49.448;8.612;2023-03-05T15:58:47;7.30;68.40
1107;DHT22;540;49.448;8.612;2023-03-05T16:01:15;7.30;69.10
1107;DHT22;540;49.448;8.612;2023-03-05T16:03:44;7.30;68.90
1107;DHT22;540;49.448;8.612;2023-03-05T16:06:13;7.30;69.40
1107;DHT22;540;49.448;8.612;2023-03-05T16:08:43;7.30;67.80
1107;DHT22;540;49.448;8.612;2023-03-05T16:11:12;7.40;68.80
1107;DHT22;540;49.448;8.612;2023-03-05T16:13:41;7.50;68.70
1107;DHT22;540;49.448;8.612;2023-03-05T16:16:08;7.40;67.70
1107;DHT22;540;49.448;8.612;2023-03-05T16:18:40;7.30;68.70
1107;DHT22;540;49.448;8.612;2023-03-05T16:21:10;7.40;67.10
1107;DHT22;540;49.448;8.612;2023-03-05T16:23:39;7.60;68.00
1107;DHT22;540;49.448;8.612;2023-03-05T16:26:09;7.30;67.90
1107;DHT22;540;49.448;8.612;2023-03-05T16:28:37;7.20;67.30
1107;DHT22;540;49.448;8.612;2023-03-05T16:31:05;7.10;67.50
1107;DHT22;540;49.448;8.612;2023-03-05T16:33:33;7.40;68.40
1107;DHT22;540;49.448;8.612;2023-03-05T16:36:19;7.40;69.70
1107;DHT22;540;49.448;8.612;2023-03-05T16:38:50;7.30;70.60
1107;DHT22;540;49.448;8.612;2023-03-05T16:41:20;6.90;70.90
1107;DHT22;540;49.448;8.612;2023-03-05T16:43:50;6.80;71.00
1107;DHT22;540;49.448;8.612;2023-03-05T16:46:19;6.90;71.90
1107;DHT22;540;49.448;8.612;2023-03-05T16:48:47;6.90;71.00
1107;DHT22;540;49.448;8.612;2023-03-05T16:51:15;7.10;69.60
1107;DHT22;540;49.448;8.612;2023-03-05T16:53:45;7.20;70.00
1107;DHT22;540;49.448;8.612;2023-03-05T16:56:13;6.90;70.30
1107;DHT22;540;49.448;8.612;2023-03-05T16:58:43;7.00;70.30
1107;DHT22;540;49.448;8.612;2023-03-05T17:01:12;6.60;70.50
1107;DHT22;540;49.448;8.612;2023-03-05T17:03:41;7.00;72.00
1107;DHT22;540;49.448;8.612;2023-03-05T17:06:12;6.70;72.10
1107;DHT22;540;49.448;8.612;2023-03-05T17:08:41;6.50;71.70